Time;durP1;ratioP1;P1;durP2;ratioP2;P2;SDS_P1;SDS_P2;PMS_P1;PMS_P2;Temp;Humidity;BMP_temperature;BMP_pressure;BME280_temperature;BME280_humidity;BME280_pressure;Samples;Min_cycle;Max_cycle;Signal;HPM_P1;HPM_P2
2022/04/05 00:00:14;;;;;;;8.20;6.30;;;;;;;;;;5052093;28;20103;-73
2022/04/05 00:02:40;;;;;;;10.63;6.80;;;;;;;;;;5052625;28;20040;-75
2022/04/05 00:05:06;;;;;;;6.88;5.50;;;;;;;;;;5052713;28;20033;-75
2022/04/05 00:07:31;;;;;;;9.23;6.40;;;;;;;;;;5052629;28;20425;-73
2022/04/05 00:09:56;;;;;;;9.48;6.63;;;;;;;;;;5052577;28;20036;-75
2022/04/05 00:12:22;;;;;;;11.18;6.43;;;;;;;;;;5052659;28;20025;-75
2022/04/05 00:14:48;;;;;;;8.60;5.72;;;;;;;;;;5052040;28;20056;-75
2022/04/05 00:17:13;;;;;;;8.23;6.38;;;;;;;;;;5051483;28;20029;-69
2022/04/05 00:19:39;;;;;;;8.50;5.47;;;;;;;;;;5052264;28;20048;-74
2022/04/05 00:22:04;;;;;;;10.00;6.30;;;;;;;;;;5052343;28;20070;-74
2022/04/05 00:24:29;;;;;;;7.03;5.80;;;;;;;;;;5052060;28;20056;-75
2022/04/05 00:26:55;;;;;;;9.35;6.35;;;;;;;;;;5052044;28;20024;-73
2022/04/05 00:29:22;;;;;;;7.00;5.35;;;;;;;;;;5051686;28;20025;-77
2022/04/05 00:31:48;;;;;;;8.98;5.35;;;;;;;;;;5052220;28;20406;-75
2022/04/05 00:34:13;;;;;;;9.65;6.22;;;;;;;;;;5051765;28;20025;-74
2022/04/05 00:36:38;;;;;;;8.50;6.30;;;;;;;;;;5051938;28;20036;-76
2022/04/05 00:39:04;;;;;;;8.48;5.60;;;;;;;;;;5051788;28;20397;-74
2022/04/05 00:41:29;;;;;;;7.93;6.13;;;;;;;;;;5052283;28;20024;-75
2022/04/05 00:43:54;;;;;;;9.85;7.45;;;;;;;;;;5051586;28;20029;-75
2022/04/05 00:46:20;;;;;;;8.07;6.90;;;;;;;;;;5052050;28;20107;-74
2022/04/05 00:48:50;;;;;;;11.73;7.25;;;;;;;;;;5051621;28;20425;-73
2022/04/05 00:51:17;;;;;;;8.77;6.60;;;;;;;;;;5051564;28;20103;-73
2022/04/05 00:53:48;;;;;;;9.52;6.72;;;;;;;;;;5050483;28;20020;-74
2022/04/05 00:56:15;;;;;;;9.20;6.22;;;;;;;;;;5051389;28;20036;-73
2022/04/05 00:58:44;;;;;;;8.18;6.30;;;;;;;;;;5051256;28;20451;-73
2022/04/05 01:01:15;;;;;;;11.43;7.28;;;;;;;;;;5051575;28;20492;-77
2022/04/05 01:03:43;;;;;;;9.30;6.75;;;;;;;;;;5051297;28;20029;-75
2022/04/05 01:06:09;;;;;;;10.18;7.60;;;;;;;;;;5051113;28;20025;-75
2022/04/05 01:08:35;;;;;;;8.90;6.20;;;;;;;;;;5051105;28;20112;-74
2022/04/05 01:11:00;;;;;;;9.77;7.05;;;;;;;;;;5051412;28;20029;-74
2022/04/05 01:13:27;;;;;;;9.88;7.43;;;;;;;;;;5051312;28;20029;-73
2022/04/05 01:15:53;;;;;;;11.98;7.72;;;;;;;;;;5051140;28;20590;-73
2022/04/05 01:18:18;;;;;;;9.90;7.88;;;;;;;;;;5051006;28;20033;-74
2022/04/05 01:20:44;;;;;;;9.40;6.55;;;;;;;;;;5051074;28;20024;-73
2022/04/05 01:23:09;;;;;;;9.98;7.15;;;;;;;;;;5051039;28;20116;-74
2022/04/05 01:25:34;;;;;;;9.18;6.20;;;;;;;;;;5050670;28;20032;-73
2022/04/05 01:27:59;;;;;;;10.98;7.25;;;;;;;;;;5050896;28;20037;-75
2022/04/05 01:30:25;;;;;;;10.75;7.60;;;;;;;;;;5050582;28;20021;-75
2022/04/05 01:32:50;;;;;;;8.38;6.07;;;;;;;;;;5049476;28;20474;-74
2022/04/05 01:35:16;;;;;;;9.32;7.35;;;;;;;;;;5050903;28;20426;-75
2022/04/05 01:37:42;;;;;;;10.50;6.60;;;;;;;;;;5050626;28;20537;-75
2022/04/05 01:40:08;;;;;;;10.32;7.63;;;;;;;;;;5050856;28;20031;-75
2022/04/05 01:42:37;;;;;;;9.23;6.63;;;;;;;;;;5051080;28;20035;-73
2022/04/05 01:45:04;;;;;;;10.02;7.50;;;;;;;;;;5049728;28;20078;-74
2022/04/05 01:47:38;;;;;;;8.02;6.65;;;;;;;;;;5051043;28;20405;-76
2022/04/05 01:50:04;;;;;;;11.52;6.72;;;;;;;;;;5050287;28;20032;-72
2022/04/05 01:52:29;;;;;;;11.52;6.43;;;;;;;;;;5050294;28;20021;-72
2022/04/05 01:54:55;;;;;;;10.00;7.13;;;;;;;;;;5050444;28;20497;-74
2022/04/05 01:57:20;;;;;;;9.95;6.38;;;;;;;;;;5050689;28;20407;-75
2022/04/05 01:59:46;;;;;;;9.48;6.72;;;;;;;;;;5050738;28;20095;-75
2022/04/05 02:02:11;;;;;;;14.52;7.70;;;;;;;;;;5049107;28;20395;-72
2022/04/05 02:04:39;;;;;;;8.65;6.15;;;;;;;;;;5049135;28;20059;-73
2022/04/05 02:07:13;;;;;;;10.13;7.38;;;;;;;;;;5050379;28;20028;-73
2022/04/05 02:09:39;;;;;;;9.45;6.93;;;;;;;;;;5050036;28;20031;-74
2022/04/05 02:12:05;;;;;;;8.38;6.75;;;;;;;;;;5050067;28;20029;-74
2022/04/05 02:14:30;;;;;;;11.15;7.13;;;;;;;;;;5050200;28;20478;-75
2022/04/05 02:16:56;;;;;;;7.82;6.45;;;;;;;;;;5054321;22;20052;-70
2022/04/05 02:19:21;;;;;;;8.38;6.60;;;;;;;;;;5029903;28;20033;-69
2022/04/05 02:21:46;;;;;;;11.05;7.15;;;;;;;;;;5029955;28;20022;-72
2022/04/05 02:24:11;;;;;;;8.57;6.70;;;;;;;;;;5029885;28;20387;-70
2022/04/05 02:26:37;;;;;;;9.48;6.93;;;;;;;;;;5029830;28;20021;-71
2022/04/05 02:29:02;;;;;;;7.65;6.40;;;;;;;;;;5029863;28;20386;-70
2022/04/05 02:31:28;;;;;;;9.25;7.25;;;;;;;;;;5029887;28;20036;-70
2022/04/05 02:33:53;;;;;;;9.73;7.40;;;;;;;;;;5029905;28;20025;-70
2022/04/05 02:36:19;;;;;;;11.00;7.07;;;;;;;;;;5029757;28;20030;-70
2022/04/05 02:38:44;;;;;;;8.77;6.88;;;;;;;;;;5029750;28;20036;-72
2022/04/05 02:41:09;;;;;;;8.63;6.60;;;;;;;;;;5029779;28;20025;-70
2022/04/05 02:43:35;;;;;;;9.52;7.05;;;;;;;;;;5029943;28;20112;-68
2022/04/05 02:46:02;;;;;;;9.57;6.90;;;;;;;;;;5029667;28;20033;-67
2022/04/05 02:48:29;;;;;;;11.43;7.28;;;;;;;;;;5029569;28;20106;-67
2022/04/05 02:50:54;;;;;;;8.10;6.07;;;;;;;;;;5029746;28;20041;-71
2022/04/05 02:53:20;;;;;;;10.80;7.13;;;;;;;;;;5029549;28;20025;-70
2022/04/05 02:55:45;;;;;;;11.30;7.35;;;;;;;;;;5030922;28;20112;-71
2022/04/05 02:58:11;;;;;;;7.22;5.80;;;;;;;;;;5033347;28;20029;-73
2022/04/05 03:00:37;;;;;;;11.98;7.30;;;;;;;;;;5033830;28;20157;-69
2022/04/05 03:03:03;;;;;;;8.93;6.50;;;;;;;;;;5033395;28;20439;-70
2022/04/05 03:05:29;;;;;;;9.50;7.07;;;;;;;;;;5033315;28;20022;-70
2022/04/05 03:07:54;;;;;;;8.95;6.45;;;;;;;;;;5033076;28;20490;-72
2022/04/05 03:10:19;;;;;;;8.73;6.63;;;;;;;;;;5033168;28;20112;-73
2022/04/05 03:12:45;;;;;;;10.13;6.80;;;;;;;;;;5033413;28;20064;-70
2022/04/05 03:15:11;;;;;;;6.95;5.20;;;;;;;;;;5033049;28;20100;-69
2022/04/05 03:17:42;;;;;;;8.70;6.07;;;;;;;;;;5033241;28;20538;-69
2022/04/05 03:20:12;;;;;;;9.13;6.05;;;;;;;;;;5032820;28;20036;-72
2022/04/05 03:22:41;;;;;;;14.00;7.70;;;;;;;;;;5032849;28;20112;-70
2022/04/05 03:25:06;;;;;;;10.02;7.20;;;;;;;;;;5033008;28;20018;-69
2022/04/05 03:27:32;;;;;;;11.65;7.53;;;;;;;;;;5032952;28;20487;-70
2022/04/05 03:29:57;;;;;;;9.15;6.90;;;;;;;;;;5032641;28;20457;-69
2022/04/05 03:32:22;;;;;;;9.20;6.85;;;;;;;;;;5032811;28;20025;-70
2022/04/05 03:34:50;;;;;;;10.40;6.07;;;;;;;;;;5032891;28;20040;-72
2022/04/05 03:37:15;;;;;;;8.13;6.60;;;;;;;;;;5032778;28;20098;-70
2022/04/05 03:39:41;;;;;;;10.05;7.13;;;;;;;;;;5032830;28;20459;-71
2022/04/05 03:42:06;;;;;;;11.13;7.22;;;;;;;;;;5032685;28;20091;-69
2022/04/05 03:44:31;;;;;;;9.18;6.50;;;;;;;;;;5033083;28;20029;-71
2022/04/05 03:46:57;;;;;;;13.75;7.78;;;;;;;;;;5033450;28;20490;-69
2022/04/05 03:49:23;;;;;;;9.65;6.55;;;;;;;;;;5032332;28;20033;-70
2022/04/05 03:51:48;;;;;;;27.17;18.73;;;;;;;;;;5032610;28;20030;-69
2022/04/05 03:54:13;;;;;;;23.42;18.48;;;;;;;;;;5032980;28;20390;-76
2022/04/05 03:56:38;;;;;;;8.90;6.53;;;;;;;;;;5014930;28;20112;-73
2022/04/05 03:59:04;;;;;;;8.20;5.75;;;;;;;;;;5032425;28;20117;-69
2022/04/05 04:01:29;;;;;;;8.68;6.57;;;;;;;;;;5032555;28;20029;-70
2022/04/05 04:03:55;;;;;;;8.48;6.53;;;;;;;;;;5032459;28;20083;-70
2022/04/05 04:06:20;;;;;;;8.75;6.88;;;;;;;;;;5032273;28;20652;-73
2022/04/05 04:08:45;;;;;;;7.53;5.95;;;;;;;;;;5031312;28;20022;-71
2022/04/05 04:11:11;;;;;;;10.48;6.85;;;;;;;;;;5032302;28;20091;-69
2022/04/05 04:13:36;;;;;;;9.60;6.88;;;;;;;;;;5032138;28;20030;-69
2022/04/05 04:16:01;;;;;;;9.90;6.75;;;;;;;;;;5032332;28;20029;-68
2022/04/05 04:18:27;;;;;;;9.30;6.32;;;;;;;;;;5032511;28;20025;-70
2022/04/05 04:20:52;;;;;;;8.38;6.30;;;;;;;;;;5032357;28;20025;-69
2022/04/05 04:23:18;;;;;;;10.60;6.65;;;;;;;;;;5032060;28;20479;-71
2022/04/05 04:25:43;;;;;;;12.32;8.63;;;;;;;;;;5032010;28;20033;-70
2022/04/05 04:28:09;;;;;;;9.52;7.68;;;;;;;;;;5013942;28;20417;-69
2022/04/05 04:30:37;;;;;;;13.77;10.73;;;;;;;;;;5031925;28;20025;-68
2022/04/05 04:33:03;;;;;;;17.60;12.20;;;;;;;;;;5031554;28;20026;-70
2022/04/05 04:35:29;;;;;;;22.17;13.82;;;;;;;;;;5031698;28;20026;-70
2022/04/05 04:37:55;;;;;;;11.32;7.43;;;;;;;;;;5031547;28;20040;-71
2022/04/05 04:40:21;;;;;;;7.93;6.78;;;;;;;;;;5031742;28;20109;-69
2022/04/05 04:42:46;;;;;;;7.82;6.40;;;;;;;;;;5031471;28;20040;-69
2022/04/05 04:45:12;;;;;;;9.32;6.57;;;;;;;;;;5031993;28;20025;-67
2022/04/05 04:47:38;;;;;;;8.43;6.78;;;;;;;;;;5031241;28;20037;-67
2022/04/05 04:50:04;;;;;;;10.07;6.20;;;;;;;;;;5031417;28;20028;-70
2022/04/05 04:52:30;;;;;;;10.20;6.57;;;;;;;;;;5031659;28;20386;-72
2022/04/05 04:54:55;;;;;;;7.10;5.63;;;;;;;;;;5031540;28;20025;-70
2022/04/05 04:57:22;;;;;;;7.93;5.60;;;;;;;;;;5031414;28;20060;-69
2022/04/05 04:59:47;;;;;;;7.70;6.40;;;;;;;;;;5031117;28;20116;-69
2022/04/05 05:02:13;;;;;;;7.97;5.45;;;;;;;;;;5031117;28;20033;-70
2022/04/05 05:04:38;;;;;;;9.05;6.15;;;;;;;;;;5031113;28;20033;-68
2022/04/05 05:07:04;;;;;;;8.10;6.40;;;;;;;;;;5031250;28;20572;-69
2022/04/05 05:09:30;;;;;;;8.05;6.57;;;;;;;;;;5030824;28;20112;-71
2022/04/05 05:11:55;;;;;;;7.60;6.25;;;;;;;;;;5031245;28;20028;-70
2022/04/05 05:14:20;;;;;;;9.88;6.60;;;;;;;;;;5030933;28;20086;-72
2022/04/05 05:16:46;;;;;;;8.00;5.63;;;;;;;;;;5030881;28;20025;-71
2022/04/05 05:19:12;;;;;;;7.10;5.68;;;;;;;;;;5029800;28;20032;-70
2022/04/05 05:21:37;;;;;;;9.48;6.20;;;;;;;;;;5031027;28;20116;-71
2022/04/05 05:24:03;;;;;;;13.88;6.50;;;;;;;;;;5031085;28;20033;-71
2022/04/05 05:26:28;;;;;;;6.82;5.75;;;;;;;;;;5031026;28;20040;-71
2022/04/05 05:28:53;;;;;;;8.88;5.95;;;;;;;;;;5031078;28;20059;-72
2022/04/05 05:31:18;;;;;;;11.45;5.88;;;;;;;;;;5030759;28;20060;-69
2022/04/05 05:33:44;;;;;;;6.07;5.13;;;;;;;;;;5030594;28;20092;-71
2022/04/05 05:36:09;;;;;;;11.23;5.93;;;;;;;;;;5030654;28;20017;-72
2022/04/05 05:38:34;;;;;;;7.50;5.95;;;;;;;;;;5030403;28;20395;-69
2022/04/05 05:41:00;;;;;;;7.75;5.80;;;;;;;;;;5030715;28;20407;-71
2022/04/05 05:43:25;;;;;;;7.68;5.55;;;;;;;;;;5030527;28;20033;-71
2022/04/05 05:45:51;;;;;;;7.55;5.93;;;;;;;;;;5030962;28;20048;-71
2022/04/05 05:48:17;;;;;;;7.90;5.90;;;;;;;;;;5030066;28;20021;-71
2022/04/05 05:50:42;;;;;;;6.47;5.25;;;;;;;;;;5030383;28;20058;-69
2022/04/05 05:53:08;;;;;;;16.73;6.90;;;;;;;;;;5030418;28;20017;-69
2022/04/05 05:55:35;;;;;;;6.07;4.70;;;;;;;;;;5030391;28;20017;-69
2022/04/05 05:58:02;;;;;;;8.13;6.22;;;;;;;;;;5021718;28;20022;-69
2022/04/05 06:00:28;;;;;;;7.15;5.57;;;;;;;;;;5022808;28;20021;-70
2022/04/05 06:02:56;;;;;;;10.20;7.03;;;;;;;;;;5026149;28;20501;-70
2022/04/05 06:05:22;;;;;;;8.32;6.57;;;;;;;;;;5026350;28;20033;-71
2022/04/05 06:07:48;;;;;;;10.68;7.40;;;;;;;;;;5027140;28;20065;-72
2022/04/05 06:10:14;;;;;;;11.35;6.68;;;;;;;;;;5025596;28;20064;-68
2022/04/05 06:12:41;;;;;;;12.65;7.50;;;;;;;;;;5026307;28;20025;-70
2022/04/05 06:15:09;;;;;;;16.02;7.45;;;;;;;;;;5026354;28;20041;-70
2022/04/05 06:17:39;;;;;;;10.32;8.02;;;;;;;;;;5026196;28;20112;-69
2022/04/05 06:20:06;;;;;;;9.20;7.75;;;;;;;;;;5025703;28;20129;-68
2022/04/05 06:22:39;;;;;;;9.82;7.13;;;;;;;;;;5025694;28;20132;-69
2022/04/05 06:25:05;;;;;;;10.23;7.30;;;;;;;;;;5026411;28;20100;-70
2022/04/05 06:27:31;;;;;;;10.20;7.72;;;;;;;;;;5020857;28;20453;-69
2022/04/05 06:29:56;;;;;;;11.10;7.78;;;;;;;;;;5006335;28;20049;-69
2022/04/05 06:32:21;;;;;;;14.85;8.50;;;;;;;;;;5010509;28;20033;-70
2022/04/05 06:34:46;;;;;;;8.85;7.05;;;;;;;;;;5022280;28;20026;-70
2022/04/05 06:37:12;;;;;;;10.68;7.68;;;;;;;;;;5028613;28;20025;-72
2022/04/05 06:39:37;;;;;;;8.63;7.10;;;;;;;;;;5029881;28;20479;-69
2022/04/05 06:42:02;;;;;;;7.07;5.70;;;;;;;;;;5029236;28;20398;-73
2022/04/05 06:44:28;;;;;;;7.95;6.82;;;;;;;;;;5022083;28;20258;-71
2022/04/05 06:46:53;;;;;;;12.30;6.68;;;;;;;;;;5016258;28;20288;-69
2022/04/05 06:49:18;;;;;;;6.15;4.95;;;;;;;;;;5030292;28;20040;-68
2022/04/05 06:51:44;;;;;;;7.97;6.15;;;;;;;;;;5015616;28;20026;-70
2022/04/05 06:54:09;;;;;;;7.80;6.28;;;;;;;;;;5022499;28;20451;-70
2022/04/05 06:56:34;;;;;;;8.45;6.35;;;;;;;;;;5050317;28;20581;-69
2022/04/05 06:59:00;;;;;;;10.38;6.68;;;;;;;;;;5044019;28;20029;-69
2022/04/05 07:01:26;;;;;;;8.20;5.70;;;;;;;;;;5029667;28;20060;-69
2022/04/05 07:03:51;;;;;;;6.85;5.05;;;;;;;;;;5029900;28;20501;-73
2022/04/05 07:06:16;;;;;;;7.32;5.63;;;;;;;;;;5028694;28;20039;-70
2022/04/05 07:08:42;;;;;;;10.55;6.13;;;;;;;;;;5026366;28;20032;-69
2022/04/05 07:11:07;;;;;;;13.30;7.13;;;;;;;;;;5029533;28;20017;-67
2022/04/05 07:13:33;;;;;;;7.65;5.60;;;;;;;;;;5028829;28;20017;-68
2022/04/05 07:15:58;;;;;;;7.93;6.25;;;;;;;;;;5029067;28;20406;-69
2022/04/05 07:18:23;;;;;;;9.00;6.70;;;;;;;;;;5028524;28;20498;-71
2022/04/05 07:20:48;;;;;;;7.10;5.43;;;;;;;;;;5028764;28;20113;-72
2022/04/05 07:23:15;;;;;;;7.07;5.97;;;;;;;;;;5029472;28;20675;-77
2022/04/05 07:25:41;;;;;;;7.90;6.10;;;;;;;;;;5028986;28;20032;-70
2022/04/05 07:28:06;;;;;;;6.85;5.68;;;;;;;;;;5030003;28;20021;-72
2022/04/05 07:30:32;;;;;;;8.82;6.65;;;;;;;;;;5029060;28;20021;-70
2022/04/05 07:32:57;;;;;;;7.72;5.68;;;;;;;;;;5029008;28;20026;-74
2022/04/05 07:35:23;;;;;;;7.07;5.55;;;;;;;;;;5011894;28;20204;-70
2022/04/05 07:37:48;;;;;;;7.63;6.07;;;;;;;;;;5028545;28;20633;-69
2022/04/05 07:40:14;;;;;;;6.95;5.53;;;;;;;;;;5028450;28;20029;-69
2022/04/05 07:42:41;;;;;;;8.50;6.00;;;;;;;;;;5028129;28;20025;-72
2022/04/05 07:45:08;;;;;;;5.70;4.78;;;;;;;;;;5028324;28;20471;-70
2022/04/05 07:47:34;;;;;;;6.53;5.35;;;;;;;;;;5028880;28;20043;-68
2022/04/05 07:50:00;;;;;;;5.45;4.80;;;;;;;;;;5028938;28;20452;-71
2022/04/05 07:52:26;;;;;;;7.47;5.30;;;;;;;;;;5028954;28;20033;-69
2022/04/05 07:54:52;;;;;;;7.80;5.32;;;;;;;;;;5029171;28;20032;-70
2022/04/05 07:57:17;;;;;;;6.13;5.10;;;;;;;;;;5028629;28;20021;-70
2022/04/05 07:59:42;;;;;;;6.68;5.25;;;;;;;;;;5026930;28;20048;-71
2022/04/05 08:02:08;;;;;;;5.85;4.90;;;;;;;;;;5029067;28;20505;-72
2022/04/05 08:04:33;;;;;;;11.20;6.53;;;;;;;;;;5028490;28;20363;-72
2022/04/05 08:06:59;;;;;;;24.95;12.10;;;;;;;;;;5028538;28;20459;-69
2022/04/05 08:09:24;;;;;;;6.82;5.43;;;;;;;;;;5027615;28;20051;-68
2022/04/05 08:11:50;;;;;;;10.30;7.63;;;;;;;;;;5010235;28;20021;-69
2022/04/05 08:14:15;;;;;;;7.55;6.03;;;;;;;;;;5028610;28;20387;-68
2022/04/05 08:16:40;;;;;;;6.85;5.20;;;;;;;;;;5040820;22;20219;-72
2022/04/05 08:19:06;;;;;;;6.70;4.05;;;;;;;;;;5029325;28;20041;-74
2022/04/05 08:21:33;;;;;;;6.82;4.43;;;;;;;;;;5028867;28;20052;-72
2022/04/05 08:23:58;;;;;;;7.60;4.78;;;;;;;;;;5028417;28;20113;-71
2022/04/05 08:26:24;;;;;;;7.78;4.22;;;;;;;;;;5030527;28;20108;-75
2022/04/05 08:28:49;;;;;;;5.57;4.20;;;;;;;;;;5034005;28;20025;-73
2022/04/05 08:31:18;;;;;;;5.10;4.45;;;;;;;;;;5027980;28;20021;-73
2022/04/05 08:33:43;;;;;;;6.68;4.93;;;;;;;;;;5027976;28;20021;-74
2022/04/05 08:36:08;;;;;;;5.18;4.38;;;;;;;;;;5028536;28;20152;-74
2022/04/05 08:38:34;;;;;;;6.68;4.38;;;;;;;;;;5027872;28;20094;-73
2022/04/05 08:41:03;;;;;;;5.85;4.10;;;;;;;;;;5027954;28;20044;-71
2022/04/05 08:43:29;;;;;;;5.60;3.80;;;;;;;;;;5028190;28;20102;-74
2022/04/05 08:45:59;;;;;;;4.88;4.18;;;;;;;;;;5027559;28;20542;-73
2022/04/05 08:48:26;;;;;;;4.80;4.32;;;;;;;;;;5023320;28;20018;-72
2022/04/05 08:50:52;;;;;;;6.03;4.45;;;;;;;;;;5008686;28;20021;-74
2022/04/05 08:53:18;;;;;;;6.13;4.43;;;;;;;;;;5015823;28;20494;-73
2022/04/05 08:55:44;;;;;;;5.15;3.97;;;;;;;;;;5027902;28;20033;-76
2022/04/05 08:58:09;;;;;;;5.10;3.92;;;;;;;;;;5028123;28;20399;-73
2022/04/05 09:00:35;;;;;;;5.63;4.10;;;;;;;;;;5026692;28;20668;-75
2022/04/05 09:03:05;;;;;;;4.90;3.65;;;;;;;;;;5027757;28;20398;-76
2022/04/05 09:05:34;;;;;;;5.25;4.22;;;;;;;;;;5027296;28;20022;-75
2022/04/05 09:08:13;;;;;;;6.03;4.13;;;;;;;;;;5027091;28;20018;-75
2022/04/05 09:10:40;;;;;;;4.60;3.58;;;;;;;;;;5026565;28;20026;-74
2022/04/05 09:13:09;;;;;;;4.00;3.60;;;;;;;;;;5027142;28;20100;-76
2022/04/05 09:15:35;;;;;;;5.15;4.07;;;;;;;;;;5027298;28;20063;-76
2022/04/05 09:18:01;;;;;;;7.20;4.78;;;;;;;;;;5027045;28;20041;-74
2022/04/05 09:20:27;;;;;;;3.65;3.08;;;;;;;;;;5027200;28;20025;-74
2022/04/05 09:22:54;;;;;;;5.82;3.70;;;;;;;;;;5027487;28;20029;-75
2022/04/05 09:25:20;;;;;;;6.90;4.20;;;;;;;;;;5026876;28;20558;-76
2022/04/05 09:27:46;;;;;;;6.28;4.15;;;;;;;;;;5027089;28;20088;-72
2022/04/05 09:30:17;;;;;;;7.72;4.40;;;;;;;;;;5013981;28;20527;-72
2022/04/05 09:32:47;;;;;;;9.52;5.10;;;;;;;;;;5027347;28;20101;-74
2022/04/05 09:35:13;;;;;;;6.53;4.68;;;;;;;;;;5026728;28;20524;-72
2022/04/05 09:37:39;;;;;;;4.60;4.00;;;;;;;;;;5027645;28;20475;-74
2022/04/05 09:40:25;;;;;;;5.10;4.38;;;;;;;;;;5036898;28;20028;-74
2022/04/05 09:43:12;;;;;;;5.07;3.70;;;;;;;;;;5027468;28;20602;-75
2022/04/05 09:46:00;;;;;;;8.05;3.95;;;;;;;;;;5026849;28;20430;-74
2022/04/05 09:48:38;;;;;;;4.07;3.60;;;;;;;;;;5026071;28;20021;-74
2022/04/05 09:51:09;;;;;;;4.90;4.40;;;;;;;;;;5026528;28;20099;-73
2022/04/05 09:53:34;;;;;;;4.85;4.30;;;;;;;;;;5026565;28;20042;-73
2022/04/05 09:56:08;;;;;;;6.63;4.20;;;;;;;;;;5026986;28;20041;-74
2022/04/05 09:58:34;;;;;;;5.80;3.95;;;;;;;;;;5026742;28;20032;-76
2022/04/05 10:01:06;;;;;;;3.97;3.58;;;;;;;;;;5020298;28;20025;-75
2022/04/05 10:03:33;;;;;;;4.37;3.57;;;;;;;;;;5022288;28;20636;-74
2022/04/05 10:05:59;;;;;;;4.10;3.70;;;;;;;;;;5022852;28;20261;-75
2022/04/05 10:08:25;;;;;;;4.38;3.97;;;;;;;;;;5022072;28;20021;-72
2022/04/05 10:10:51;;;;;;;8.57;3.88;;;;;;;;;;5020801;28;20033;-77
2022/04/05 10:13:16;;;;;;;5.78;3.40;;;;;;;;;;5023311;28;20703;-73
2022/04/05 10:15:47;;;;;;;8.75;5.38;;;;;;;;;;5021634;28;20609;-72
2022/04/05 10:18:16;;;;;;;7.07;5.95;;;;;;;;;;5022156;28;20030;-73
2022/04/05 10:20:42;;;;;;;4.60;4.05;;;;;;;;;;5027829;28;20059;-73
2022/04/05 10:23:07;;;;;;;4.95;4.43;;;;;;;;;;5027402;28;20033;-74
2022/04/05 10:25:34;;;;;;;4.40;4.00;;;;;;;;;;5030890;28;20112;-72
2022/04/05 10:28:00;;;;;;;4.97;3.88;;;;;;;;;;5029333;28;20104;-72
2022/04/05 10:30:35;;;;;;;11.25;4.80;;;;;;;;;;5030126;28;20108;-74
2022/04/05 10:33:08;;;;;;;8.45;3.80;;;;;;;;;;5040414;28;20104;-75
2022/04/05 10:35:41;;;;;;;4.93;3.70;;;;;;;;;;5033711;28;20075;-76
2022/04/05 10:38:14;;;;;;;4.20;3.80;;;;;;;;;;5028498;28;20029;-75
2022/04/05 10:40:41;;;;;;;5.20;4.05;;;;;;;;;;5016279;28;20037;-73
2022/04/05 10:43:17;;;;;;;5.15;4.65;;;;;;;;;;5030148;28;20037;-74
2022/04/05 10:45:44;;;;;;;4.93;4.03;;;;;;;;;;5031210;28;20049;-73
2022/04/05 10:48:18;;;;;;;5.55;4.35;;;;;;;;;;5029585;28;20033;-72
2022/04/05 10:51:01;;;;;;;6.75;4.70;;;;;;;;;;5033433;28;20350;-74
2022/04/05 10:53:31;;;;;;;5.18;4.68;;;;;;;;;;5029407;28;20491;-73
2022/04/05 10:56:03;;;;;;;5.68;5.05;;;;;;;;;;5025468;28;20104;-75
2022/04/05 10:58:38;;;;;;;5.60;4.63;;;;;;;;;;5028831;28;20072;-73
2022/04/05 11:01:19;;;;;;;6.10;4.90;;;;;;;;;;5028995;28;20088;-75
2022/04/05 11:04:09;;;;;;;7.07;6.05;;;;;;;;;;5029534;28;20025;-76
2022/04/05 11:07:02;;;;;;;11.00;8.32;;;;;;;;;;5029965;28;20033;-74
2022/04/05 11:09:32;;;;;;;13.38;8.05;;;;;;;;;;5029582;28;20033;-72
2022/04/05 11:12:01;;;;;;;10.70;7.72;;;;;;;;;;5028536;28;20052;-74
2022/04/05 11:14:45;;;;;;;5.45;4.70;;;;;;;;;;5029925;28;20033;-73
2022/04/05 11:17:13;;;;;;;11.38;8.02;;;;;;;;;;5031117;28;20029;-72
2022/04/05 11:19:42;;;;;;;6.30;4.15;;;;;;;;;;5033449;28;20091;-74
2022/04/05 11:22:20;;;;;;;5.78;4.35;;;;;;;;;;5031275;28;20029;-75
2022/04/05 11:24:54;;;;;;;5.68;3.72;;;;;;;;;;5033299;28;20033;-73
2022/04/05 11:27:26;;;;;;;7.53;4.38;;;;;;;;;;5033368;28;20028;-73
2022/04/05 11:30:28;;;;;;;6.13;3.70;;;;;;;;;;5030989;28;20032;-75
2022/04/05 11:33:06;;;;;;;7.10;4.00;;;;;;;;;;5013322;28;20105;-76
2022/04/05 11:35:34;;;;;;;4.97;3.60;;;;;;;;;;5026327;28;20483;-75
2022/04/05 11:37:59;;;;;;;4.82;3.83;;;;;;;;;;5032641;28;20033;-75
2022/04/05 11:40:25;;;;;;;5.72;4.53;;;;;;;;;;5032743;28;20590;-74
2022/04/05 11:42:51;;;;;;;7.47;4.70;;;;;;;;;;5032538;28;20083;-74
2022/04/05 11:45:17;;;;;;;5.03;4.35;;;;;;;;;;5033131;28;20033;-75
2022/04/05 11:47:54;;;;;;;6.47;5.60;;;;;;;;;;5034354;28;20116;-76
2022/04/05 11:50:20;;;;;;;7.57;4.13;;;;;;;;;;5031863;28;20025;-70
2022/04/05 11:52:45;;;;;;;5.22;4.25;;;;;;;;;;5032460;28;20033;-75
2022/04/05 11:58:05;;;;;;;5.00;4.38;;;;;;;;;;5032480;28;20032;-73
2022/04/05 12:00:33;;;;;;;5.38;4.30;;;;;;;;;;5033778;28;20017;-73
2022/04/05 12:03:06;;;;;;;10.10;4.47;;;;;;;;;;5021169;28;20032;-75
2022/04/05 12:05:42;;;;;;;5.93;4.13;;;;;;;;;;5032873;28;20041;-75
2022/04/05 12:08:12;;;;;;;6.07;4.05;;;;;;;;;;5032393;28;20021;-73
2022/04/05 12:10:39;;;;;;;4.90;4.30;;;;;;;;;;5032459;28;20037;-74
2022/04/05 12:13:05;;;;;;;5.00;4.18;;;;;;;;;;5032265;28;20542;-71
2022/04/05 12:15:32;;;;;;;5.20;4.22;;;;;;;;;;5031756;28;20120;-74
2022/04/05 12:18:20;;;;;;;7.80;4.63;;;;;;;;;;5027632;28;20032;-71
2022/04/05 12:21:00;;;;;;;5.18;4.68;;;;;;;;;;5011747;28;20486;-73
2022/04/05 12:23:38;;;;;;;7.78;5.95;;;;;;;;;;5012597;28;20419;-73
2022/04/05 12:26:24;;;;;;;8.90;7.32;;;;;;;;;;5019676;28;20053;-73
2022/04/05 12:28:54;;;;;;;7.60;6.05;;;;;;;;;;5031532;28;20491;-72
2022/04/05 12:31:28;;;;;;;8.95;7.90;;;;;;;;;;5030516;28;20479;-73
2022/04/05 12:33:53;;;;;;;6.22;5.53;;;;;;;;;;5032084;28;20478;-75
2022/04/05 12:36:20;;;;;;;5.97;5.22;;;;;;;;;;5032547;28;20033;-74
2022/04/05 12:38:46;;;;;;;5.95;5.00;;;;;;;;;;5029826;28;20176;-73
2022/04/05 12:41:19;;;;;;;7.65;5.18;;;;;;;;;;5031126;28;20387;-73
2022/04/05 12:44:02;;;;;;;8.93;6.97;;;;;;;;;;5029777;28;20025;-71
2022/04/05 12:46:34;;;;;;;;;;;;;;;;;;5030562;28;20026;-68
2022/04/05 12:49:20;;;;;;;10.23;6.70;;;;;;;;;;5027415;28;19948;-74
2022/04/05 12:51:47;;;;;;;7.60;5.45;;;;;;;;;;5027677;28;20032;-73
2022/04/05 12:54:27;;;;;;;6.03;4.57;;;;;;;;;;5029572;28;20368;-74
2022/04/05 12:56:53;;;;;;;6.13;4.60;;;;;;;;;;5030841;28;20494;-72
2022/04/05 12:59:25;;;;;;;6.22;5.00;;;;;;;;;;5030602;28;20029;-72
2022/04/05 13:01:56;;;;;;;6.15;5.25;;;;;;;;;;5031033;28;20022;-73
2022/04/05 13:04:23;;;;;;;7.53;5.80;;;;;;;;;;5030605;28;20057;-72
2022/04/05 13:06:53;;;;;;;10.73;6.00;;;;;;;;;;5033258;28;20083;-73
2022/04/05 13:09:27;;;;;;;8.93;6.03;;;;;;;;;;5029368;28;20025;-74
2022/04/05 13:12:09;;;;;;;9.93;6.15;;;;;;;;;;5031024;28;20044;-73
2022/04/05 13:14:35;;;;;;;6.97;5.55;;;;;;;;;;5030384;28;20022;-73
2022/04/05 13:17:01;;;;;;;8.48;5.40;;;;;;;;;;5030455;28;20041;-72
2022/04/05 13:19:26;;;;;;;7.22;5.57;;;;;;;;;;5049599;28;20048;-74
2022/04/05 13:21:54;;;;;;;7.05;5.57;;;;;;;;;;5029542;28;20083;-73
2022/04/05 13:24:24;;;;;;;6.32;5.47;;;;;;;;;;5036287;28;20167;-75
2022/04/05 13:26:52;;;;;;;10.32;6.50;;;;;;;;;;5028027;28;20535;-70
2022/04/05 13:29:26;;;;;;;7.78;5.97;;;;;;;;;;5017147;28;20438;-74
2022/04/05 13:32:02;;;;;;;10.00;6.97;;;;;;;;;;5029928;28;20025;-72
2022/04/05 13:34:33;;;;;;;10.48;7.78;;;;;;;;;;5028440;28;20045;-75
2022/04/05 13:36:58;;;;;;;12.70;8.30;;;;;;;;;;5028806;28;20553;-73
2022/04/05 13:39:32;;;;;;;15.20;9.60;;;;;;;;;;5027272;28;20041;-71
2022/04/05 13:41:58;;;;;;;8.57;6.22;;;;;;;;;;5028518;28;20052;-73
2022/04/05 13:44:23;;;;;;;8.82;6.75;;;;;;;;;;5029640;28;20490;-73
2022/04/05 13:46:49;;;;;;;11.00;7.72;;;;;;;;;;5029811;28;20031;-75
2022/04/05 13:49:16;;;;;;;11.15;6.70;;;;;;;;;;5028302;28;20029;-74
2022/04/05 13:51:43;;;;;;;11.05;7.10;;;;;;;;;;5027628;28;20029;-72
2022/04/05 13:54:10;;;;;;;10.65;7.00;;;;;;;;;;5024972;28;20026;-73
2022/04/05 13:56:35;;;;;;;9.48;7.28;;;;;;;;;;5028821;28;20037;-72
2022/04/05 13:59:02;;;;;;;10.88;6.95;;;;;;;;;;5028985;28;20037;-72
2022/04/05 14:01:28;;;;;;;10.18;7.10;;;;;;;;;;5031068;28;20117;-72
2022/04/05 14:03:54;;;;;;;11.05;6.88;;;;;;;;;;5029746;28;20104;-72
2022/04/05 14:06:20;;;;;;;9.52;7.20;;;;;;;;;;5028890;28;20550;-72
2022/04/05 14:08:45;;;;;;;11.18;6.93;;;;;;;;;;5028011;28;20091;-72
2022/04/05 14:11:12;;;;;;;10.02;7.38;;;;;;;;;;5029948;28;20029;-75
2022/04/05 14:13:37;;;;;;;10.45;6.57;;;;;;;;;;5028355;28;20049;-75
2022/04/05 14:16:03;;;;;;;10.63;7.25;;;;;;;;;;5029552;28;20092;-73
2022/04/05 14:18:29;;;;;;;9.52;5.93;;;;;;;;;;5025400;28;20033;-73
2022/04/05 14:20:55;;;;;;;9.75;6.78;;;;;;;;;;5028037;28;20099;-75
2022/04/05 14:23:20;;;;;;;7.53;6.43;;;;;;;;;;5028054;28;20387;-73
2022/04/05 14:25:45;;;;;;;9.23;6.50;;;;;;;;;;5028010;28;20079;-72
2022/04/05 14:28:11;;;;;;;9.27;6.47;;;;;;;;;;5028653;28;20072;-74
2022/04/05 14:30:36;;;;;;;8.60;6.22;;;;;;;;;;5028386;28;20083;-75
2022/04/05 14:33:01;;;;;;;8.90;6.60;;;;;;;;;;5029343;28;20478;-71
2022/04/05 14:35:27;;;;;;;7.40;6.00;;;;;;;;;;5027135;28;20030;-73
2022/04/05 14:37:52;;;;;;;7.78;6.07;;;;;;;;;;5026066;28;20074;-75
2022/04/05 14:40:18;;;;;;;7.55;5.93;;;;;;;;;;5028571;28;20060;-75
2022/04/05 14:42:44;;;;;;;8.73;6.55;;;;;;;;;;5029938;28;20022;-74
2022/04/05 14:45:09;;;;;;;6.22;4.85;;;;;;;;;;5029529;28;20048;-73